Impacts TAF Board INFO
FOR SITUATIONAL AWARENESS. NOT TO BE USED FOR FLIGHT PLANNING PURPOSES.
IDs:

KSFO - San Francisco Intl, CA, US

Issued at 0303 UTC 25 May 2018
Updated at 0506 UTC 25 May 2018
Potential Impact None Slight Moderate High
Time0456Z 25/06Z 25/07Z 25/08Z 25/09Z 25/10Z 25/11Z 25/12Z 25/13Z 25/14Z 25/15Z 25/16Z 25/17Z 25/18Z>>
Type OBS PRVL PRVL PRVL PRVL PRVL PRVL PRVL PRVL PRVL PRVL PRVL PRVL PRVL
VIS 10 >6 >6 >6 >6 >6 >6 >6 >6 >6 >6 >6 >6 >6
CIG 18 45 45 45 45 30 30 30 30 30 35 35 35 35
Cover BKN BKN BKN BKN BKN OVC OVC OVC OVC OVC BKN BKN BKN BKN
FltCat MVFR VFR VFR VFR VFR MVFR MVFR MVFR MVFR MVFR VFR VFR VFR VFR
WX -- -- -- -- -- VCSH VCSH VCSH VCSH VCSH VCSH VCSH VCSH VCSH
WDir 240 230 230 230 230 220 220 220 220 220 200 200 200 200
WSpd 7 8 8 8 8 7 7 7 7 7 5 5 5 5
WGst -- -- -- -- -- -- -- -- -- -- -- -- -- --

Raw TAF
KSFO 250303Z 2503/2606 23008KT P6SM FEW020 SCT030 BKN045
  FM251000 22007KT P6SM VCSH BKN030 OVC045
  FM251500 20005KT P6SM VCSH SCT025 BKN035 BKN050
  FM252000 20007KT P6SM VCSH BKN035 BKN050
  FM252300 27008KT P6SM SCT035 BKN050


Raw METAR
KSFO 250456Z 24007KT 10SM FEW010 BKN018 BKN024 14/09 A3007 RMK AO2 SLP181 T01390089
KSFO 250428Z VRB06KT 10SM FEW010 BKN018 OVC045 14/09 A3007 RMK AO2 T01390089
KSFO 250356Z 26007KT 10SM FEW010 SCT018 BKN043 14/09 A3007 RMK AO2 SLP182 T01440089
KSFO 250256Z 23008KT 10SM FEW018 SCT031 BKN045 BKN150 14/08 A3006 RMK AO2 SLP179 T01440083 53002

METAR Board
Radar Display
Forecast Discussion

FOR SITUATIONAL AWARENESS. NOT TO BE USED FOR FLIGHT PLANNING PURPOSES.